sensor_id;sensor_type;location;lat;lon;timestamp;P1;durP1;ratioP1;P2;durP2;ratioP2
12302;SDS011;6214;48.012;7.862;2024-03-02T00:00:21;6.03;;;2.30;;
12302;SDS011;6214;48.012;7.862;2024-03-02T00:02:49;5.57;;;1.85;;
12302;SDS011;6214;48.012;7.862;2024-03-02T00:05:20;5.47;;;1.88;;
12302;SDS011;6214;48.012;7.862;2024-03-02T00:07:57;5.30;;;1.77;;
12302;SDS011;6214;48.012;7.862;2024-03-02T00:10:25;4.90;;;1.50;;
12302;SDS011;6214;48.012;7.862;2024-03-02T00:13:03;5.00;;;1.40;;
12302;SDS011;6214;48.012;7.862;2024-03-02T00:15:40;4.70;;;1.17;;
12302;SDS011;6214;48.012;7.862;2024-03-02T00:18:18;4.90;;;1.55;;
12302;SDS011;6214;48.012;7.862;2024-03-02T00:20:46;5.00;;;1.40;;
12302;SDS011;6214;48.012;7.862;2024-03-02T00:23:16;4.80;;;1.30;;
12302;SDS011;6214;48.012;7.862;2024-03-02T00:25:49;4.40;;;1.00;;
12302;SDS011;6214;48.012;7.862;2024-03-02T00:30:59;4.45;;;0.90;;
12302;SDS011;6214;48.012;7.862;2024-03-02T00:33:45;5.00;;;1.00;;
12302;SDS011;6214;48.012;7.862;2024-03-02T00:36:14;5.30;;;1.00;;
12302;SDS011;6214;48.012;7.862;2024-03-02T00:38:47;4.40;;;0.95;;
12302;SDS011;6214;48.012;7.862;2024-03-02T00:41:17;4.55;;;1.05;;
12302;SDS011;6214;48.012;7.862;2024-03-02T00:43:58;5.20;;;1.70;;
12302;SDS011;6214;48.012;7.862;2024-03-02T00:46:30;4.80;;;1.30;;
12302;SDS011;6214;48.012;7.862;2024-03-02T00:49:01;4.90;;;1.50;;
12302;SDS011;6214;48.012;7.862;2024-03-02T00:51:50;5.40;;;1.60;;
12302;SDS011;6214;48.012;7.862;2024-03-02T00:54:22;4.53;;;1.10;;
12302;SDS011;6214;48.012;7.862;2024-03-02T00:56:52;5.00;;;1.27;;
12302;SDS011;6214;48.012;7.862;2024-03-02T00:59:22;5.00;;;1.77;;
12302;SDS011;6214;48.012;7.862;2024-03-02T01:01:49;5.20;;;1.60;;
12302;SDS011;6214;48.012;7.862;2024-03-02T01:04:16;5.10;;;1.50;;
12302;SDS011;6214;48.012;7.862;2024-03-02T01:06:43;4.60;;;1.30;;
12302;SDS011;6214;48.012;7.862;2024-03-02T01:09:10;4.50;;;1.10;;
12302;SDS011;6214;48.012;7.862;2024-03-02T01:11:39;4.60;;;1.17;;
12302;SDS011;6214;48.012;7.862;2024-03-02T01:14:06;4.90;;;1.20;;
12302;SDS011;6214;48.012;7.862;2024-03-02T01:16:33;4.85;;;1.55;;
12302;SDS011;6214;48.012;7.862;2024-03-02T01:19:00;4.70;;;1.10;;
12302;SDS011;6214;48.012;7.862;2024-03-02T01:21:27;4.78;;;1.20;;
12302;SDS011;6214;48.012;7.862;2024-03-02T01:23:54;4.43;;;0.93;;
12302;SDS011;6214;48.012;7.862;2024-03-02T01:26:21;4.53;;;1.08;;
12302;SDS011;6214;48.012;7.862;2024-03-02T01:28:47;4.68;;;1.20;;
12302;SDS011;6214;48.012;7.862;2024-03-02T01:31:15;4.40;;;1.02;;
12302;SDS011;6214;48.012;7.862;2024-03-02T01:33:42;4.47;;;1.00;;
12302;SDS011;6214;48.012;7.862;2024-03-02T01:36:09;4.50;;;1.00;;
12302;SDS011;6214;48.012;7.862;2024-03-02T01:38:36;4.40;;;1.00;;
12302;SDS011;6214;48.012;7.862;2024-03-02T01:41:04;4.20;;;0.80;;
12302;SDS011;6214;48.012;7.862;2024-03-02T01:43:31;4.40;;;1.00;;
12302;SDS011;6214;48.012;7.862;2024-03-02T01:45:58;4.40;;;0.90;;
12302;SDS011;6214;48.012;7.862;2024-03-02T01:48:25;4.50;;;0.90;;
12302;SDS011;6214;48.012;7.862;2024-03-02T01:50:52;4.30;;;0.90;;
12302;SDS011;6214;48.012;7.862;2024-03-02T01:53:19;4.60;;;1.00;;
12302;SDS011;6214;48.012;7.862;2024-03-02T01:55:46;4.78;;;1.17;;
12302;SDS011;6214;48.012;7.862;2024-03-02T01:58:13;4.40;;;1.00;;
12302;SDS011;6214;48.012;7.862;2024-03-02T02:00:40;4.30;;;0.90;;
12302;SDS011;6214;48.012;7.862;2024-03-02T02:03:07;4.30;;;0.90;;
12302;SDS011;6214;48.012;7.862;2024-03-02T02:05:34;4.10;;;0.70;;
12302;SDS011;6214;48.012;7.862;2024-03-02T02:08:02;4.47;;;1.10;;
12302;SDS011;6214;48.012;7.862;2024-03-02T02:10:28;4.30;;;0.90;;
12302;SDS011;6214;48.012;7.862;2024-03-02T02:12:55;4.30;;;0.87;;
12302;SDS011;6214;48.012;7.862;2024-03-02T02:15:23;4.50;;;0.90;;
12302;SDS011;6214;48.012;7.862;2024-03-02T02:17:57;4.50;;;1.00;;
12302;SDS011;6214;48.012;7.862;2024-03-02T02:20:25;4.90;;;1.30;;
12302;SDS011;6214;48.012;7.862;2024-03-02T02:23:02;4.70;;;1.00;;
12302;SDS011;6214;48.012;7.862;2024-03-02T02:25:31;4.30;;;0.80;;
12302;SDS011;6214;48.012;7.862;2024-03-02T02:27:58;4.40;;;0.90;;
12302;SDS011;6214;48.012;7.862;2024-03-02T02:30:29;4.30;;;0.90;;
12302;SDS011;6214;48.012;7.862;2024-03-02T02:32:57;4.65;;;1.10;;
12302;SDS011;6214;48.012;7.862;2024-03-02T02:35:25;4.70;;;1.33;;
12302;SDS011;6214;48.012;7.862;2024-03-02T02:37:53;5.00;;;1.38;;
12302;SDS011;6214;48.012;7.862;2024-03-02T02:40:20;5.15;;;1.70;;
12302;SDS011;6214;48.012;7.862;2024-03-02T02:42:48;4.60;;;1.10;;
12302;SDS011;6214;48.012;7.862;2024-03-02T02:45:15;4.70;;;1.10;;
12302;SDS011;6214;48.012;7.862;2024-03-02T02:47:43;4.60;;;1.10;;
12302;SDS011;6214;48.012;7.862;2024-03-02T02:50:11;4.97;;;1.33;;
12302;SDS011;6214;48.012;7.862;2024-03-02T02:52:39;4.83;;;1.40;;
12302;SDS011;6214;48.012;7.862;2024-03-02T02:55:08;4.38;;;1.02;;
12302;SDS011;6214;48.012;7.862;2024-03-02T02:57:39;4.60;;;1.20;;
12302;SDS011;6214;48.012;7.862;2024-03-02T03:00:12;4.53;;;1.10;;
12302;SDS011;6214;48.012;7.862;2024-03-02T03:02:43;4.90;;;1.30;;
12302;SDS011;6214;48.012;7.862;2024-03-02T03:05:12;4.60;;;0.90;;
12302;SDS011;6214;48.012;7.862;2024-03-02T03:07:40;4.60;;;1.10;;
12302;SDS011;6214;48.012;7.862;2024-03-02T03:10:08;4.60;;;1.00;;
12302;SDS011;6214;48.012;7.862;2024-03-02T03:12:35;4.60;;;1.15;;
12302;SDS011;6214;48.012;7.862;2024-03-02T03:15:03;4.20;;;0.90;;
12302;SDS011;6214;48.012;7.862;2024-03-02T03:17:34;4.30;;;0.90;;
12302;SDS011;6214;48.012;7.862;2024-03-02T03:20:03;4.30;;;0.80;;
12302;SDS011;6214;48.012;7.862;2024-03-02T03:22:32;4.30;;;0.90;;
12302;SDS011;6214;48.012;7.862;2024-03-02T03:24:58;4.30;;;0.80;;
12302;SDS011;6214;48.012;7.862;2024-03-02T03:27:26;4.30;;;0.80;;
12302;SDS011;6214;48.012;7.862;2024-03-02T03:29:53;4.38;;;0.82;;
12302;SDS011;6214;48.012;7.862;2024-03-02T03:32:21;4.70;;;1.10;;
12302;SDS011;6214;48.012;7.862;2024-03-02T03:34:48;4.20;;;0.90;;
12302;SDS011;6214;48.012;7.862;2024-03-02T03:37:15;4.32;;;0.93;;
12302;SDS011;6214;48.012;7.862;2024-03-02T03:39:42;4.60;;;1.10;;
12302;SDS011;6214;48.012;7.862;2024-03-02T03:42:10;4.80;;;1.20;;
12302;SDS011;6214;48.012;7.862;2024-03-02T03:44:36;4.70;;;1.40;;
12302;SDS011;6214;48.012;7.862;2024-03-02T03:47:03;4.60;;;1.20;;
12302;SDS011;6214;48.012;7.862;2024-03-02T03:49:30;4.30;;;0.90;;
12302;SDS011;6214;48.012;7.862;2024-03-02T03:51:57;4.20;;;0.90;;
12302;SDS011;6214;48.012;7.862;2024-03-02T03:54:25;4.20;;;0.80;;
12302;SDS011;6214;48.012;7.862;2024-03-02T03:56:51;4.70;;;0.60;;
12302;SDS011;6214;48.012;7.862;2024-03-02T03:59:18;4.20;;;0.70;;
12302;SDS011;6214;48.012;7.862;2024-03-02T04:01:45;4.40;;;0.80;;
12302;SDS011;6214;48.012;7.862;2024-03-02T04:04:13;4.40;;;0.85;;
12302;SDS011;6214;48.012;7.862;2024-03-02T04:06:40;4.00;;;0.60;;
12302;SDS011;6214;48.012;7.862;2024-03-02T04:09:07;4.20;;;0.60;;
12302;SDS011;6214;48.012;7.862;2024-03-02T04:11:34;4.00;;;0.50;;
12302;SDS011;6214;48.012;7.862;2024-03-02T04:14:01;4.00;;;0.40;;
12302;SDS011;6214;48.012;7.862;2024-03-02T04:16:28;4.10;;;0.60;;
12302;SDS011;6214;48.012;7.862;2024-03-02T04:18:55;4.10;;;0.60;;
12302;SDS011;6214;48.012;7.862;2024-03-02T04:21:22;4.10;;;0.70;;
12302;SDS011;6214;48.012;7.862;2024-03-02T04:23:49;4.20;;;0.60;;
12302;SDS011;6214;48.012;7.862;2024-03-02T04:26:16;4.40;;;0.60;;
12302;SDS011;6214;48.012;7.862;2024-03-02T04:28:48;4.25;;;0.70;;
12302;SDS011;6214;48.012;7.862;2024-03-02T04:31:15;4.40;;;0.80;;
12302;SDS011;6214;48.012;7.862;2024-03-02T04:33:43;4.30;;;0.70;;
12302;SDS011;6214;48.012;7.862;2024-03-02T04:36:10;4.10;;;0.70;;
12302;SDS011;6214;48.012;7.862;2024-03-02T04:38:39;4.20;;;0.70;;
12302;SDS011;6214;48.012;7.862;2024-03-02T04:41:06;4.20;;;0.80;;
12302;SDS011;6214;48.012;7.862;2024-03-02T04:43:34;4.10;;;0.70;;
12302;SDS011;6214;48.012;7.862;2024-03-02T04:46:01;4.20;;;0.60;;
12302;SDS011;6214;48.012;7.862;2024-03-02T04:48:28;4.20;;;0.60;;
12302;SDS011;6214;48.012;7.862;2024-03-02T04:50:55;4.10;;;0.50;;
12302;SDS011;6214;48.012;7.862;2024-03-02T04:53:22;4.10;;;0.60;;
12302;SDS011;6214;48.012;7.862;2024-03-02T04:55:49;4.20;;;0.70;;
12302;SDS011;6214;48.012;7.862;2024-03-02T04:58:22;4.28;;;0.73;;
12302;SDS011;6214;48.012;7.862;2024-03-02T05:00:49;4.30;;;0.80;;
12302;SDS011;6214;48.012;7.862;2024-03-02T05:03:16;4.30;;;0.90;;
12302;SDS011;6214;48.012;7.862;2024-03-02T05:05:43;4.10;;;0.60;;
12302;SDS011;6214;48.012;7.862;2024-03-02T05:08:10;4.20;;;0.70;;
12302;SDS011;6214;48.012;7.862;2024-03-02T05:10:38;4.50;;;0.70;;
12302;SDS011;6214;48.012;7.862;2024-03-02T05:13:05;4.20;;;0.70;;
12302;SDS011;6214;48.012;7.862;2024-03-02T05:15:32;4.10;;;0.60;;
12302;SDS011;6214;48.012;7.862;2024-03-02T05:17:59;4.03;;;0.50;;
12302;SDS011;6214;48.012;7.862;2024-03-02T05:20:28;4.28;;;0.70;;
12302;SDS011;6214;48.012;7.862;2024-03-02T05:22:55;4.20;;;0.70;;
12302;SDS011;6214;48.012;7.862;2024-03-02T05:25:22;4.20;;;0.70;;
12302;SDS011;6214;48.012;7.862;2024-03-02T05:27:49;4.20;;;0.70;;
12302;SDS011;6214;48.012;7.862;2024-03-02T05:30:16;4.47;;;0.70;;
12302;SDS011;6214;48.012;7.862;2024-03-02T05:32:43;4.20;;;0.60;;
12302;SDS011;6214;48.012;7.862;2024-03-02T05:35:10;4.10;;;0.50;;
12302;SDS011;6214;48.012;7.862;2024-03-02T05:37:39;4.00;;;0.50;;
12302;SDS011;6214;48.012;7.862;2024-03-02T05:40:06;4.78;;;0.60;;
12302;SDS011;6214;48.012;7.862;2024-03-02T05:42:34;4.00;;;0.50;;
12302;SDS011;6214;48.012;7.862;2024-03-02T05:45:01;4.10;;;0.50;;
12302;SDS011;6214;48.012;7.862;2024-03-02T05:47:28;3.90;;;0.40;;
12302;SDS011;6214;48.012;7.862;2024-03-02T05:49:55;4.10;;;0.50;;
12302;SDS011;6214;48.012;7.862;2024-03-02T05:52:22;4.00;;;0.50;;
12302;SDS011;6214;48.012;7.862;2024-03-02T05:54:49;4.10;;;0.50;;
12302;SDS011;6214;48.012;7.862;2024-03-02T05:57:16;4.03;;;0.50;;
12302;SDS011;6214;48.012;7.862;2024-03-02T05:59:48;4.00;;;0.50;;
12302;SDS011;6214;48.012;7.862;2024-03-02T06:02:15;4.10;;;0.60;;
12302;SDS011;6214;48.012;7.862;2024-03-02T06:04:42;4.10;;;0.60;;
12302;SDS011;6214;48.012;7.862;2024-03-02T06:07:09;4.00;;;0.50;;
12302;SDS011;6214;48.012;7.862;2024-03-02T06:09:36;4.40;;;0.60;;
12302;SDS011;6214;48.012;7.862;2024-03-02T06:12:04;4.10;;;0.50;;
12302;SDS011;6214;48.012;7.862;2024-03-02T06:14:31;4.10;;;0.50;;
12302;SDS011;6214;48.012;7.862;2024-03-02T06:16:58;3.95;;;0.40;;
12302;SDS011;6214;48.012;7.862;2024-03-02T06:19:25;4.00;;;0.50;;
12302;SDS011;6214;48.012;7.862;2024-03-02T06:21:54;4.03;;;0.50;;
12302;SDS011;6214;48.012;7.862;2024-03-02T06:24:21;4.00;;;0.50;;
12302;SDS011;6214;48.012;7.862;2024-03-02T06:26:48;4.00;;;0.50;;
12302;SDS011;6214;48.012;7.862;2024-03-02T06:29:14;4.00;;;0.40;;
12302;SDS011;6214;48.012;7.862;2024-03-02T06:31:41;4.00;;;0.40;;
12302;SDS011;6214;48.012;7.862;2024-03-02T06:34:08;4.00;;;0.40;;
12302;SDS011;6214;48.012;7.862;2024-03-02T06:36:35;4.10;;;0.50;;
12302;SDS011;6214;48.012;7.862;2024-03-02T06:39:02;4.10;;;0.50;;
12302;SDS011;6214;48.012;7.862;2024-03-02T06:41:29;4.43;;;0.90;;
12302;SDS011;6214;48.012;7.862;2024-03-02T06:43:57;4.50;;;0.80;;
12302;SDS011;6214;48.012;7.862;2024-03-02T06:46:26;4.30;;;0.70;;
12302;SDS011;6214;48.012;7.862;2024-03-02T06:48:53;4.20;;;0.60;;
12302;SDS011;6214;48.012;7.862;2024-03-02T06:51:20;4.20;;;0.60;;
12302;SDS011;6214;48.012;7.862;2024-03-02T06:53:48;4.20;;;0.60;;
12302;SDS011;6214;48.012;7.862;2024-03-02T06:56:15;4.20;;;0.70;;
12302;SDS011;6214;48.012;7.862;2024-03-02T06:58:42;4.50;;;0.70;;
12302;SDS011;6214;48.012;7.862;2024-03-02T07:01:09;4.20;;;0.70;;
12302;SDS011;6214;48.012;7.862;2024-03-02T07:03:36;4.70;;;0.60;;
12302;SDS011;6214;48.012;7.862;2024-03-02T07:06:05;4.10;;;0.60;;
12302;SDS011;6214;48.012;7.862;2024-03-02T07:08:32;4.10;;;0.60;;
12302;SDS011;6214;48.012;7.862;2024-03-02T07:11:00;4.50;;;0.50;;
12302;SDS011;6214;48.012;7.862;2024-03-02T07:13:27;4.10;;;0.50;;
12302;SDS011;6214;48.012;7.862;2024-03-02T07:15:54;4.10;;;0.50;;
12302;SDS011;6214;48.012;7.862;2024-03-02T07:18:21;4.10;;;0.50;;
12302;SDS011;6214;48.012;7.862;2024-03-02T07:20:48;4.10;;;0.50;;
12302;SDS011;6214;48.012;7.862;2024-03-02T07:23:16;4.40;;;0.80;;
12302;SDS011;6214;48.012;7.862;2024-03-02T07:25:42;4.30;;;0.60;;
12302;SDS011;6214;48.012;7.862;2024-03-02T07:28:12;4.40;;;0.70;;
12302;SDS011;6214;48.012;7.862;2024-03-02T07:30:41;4.50;;;0.80;;
12302;SDS011;6214;48.012;7.862;2024-03-02T07:33:08;4.60;;;1.10;;
12302;SDS011;6214;48.012;7.862;2024-03-02T07:35:35;4.60;;;1.10;;
12302;SDS011;6214;48.012;7.862;2024-03-02T07:38:02;4.38;;;0.80;;
12302;SDS011;6214;48.012;7.862;2024-03-02T07:40:28;4.15;;;0.50;;
12302;SDS011;6214;48.012;7.862;2024-03-02T07:42:56;4.20;;;0.50;;
12302;SDS011;6214;48.012;7.862;2024-03-02T07:45:23;4.10;;;0.50;;
12302;SDS011;6214;48.012;7.862;2024-03-02T07:47:50;4.20;;;0.50;;
12302;SDS011;6214;48.012;7.862;2024-03-02T07:50:18;4.20;;;0.50;;
12302;SDS011;6214;48.012;7.862;2024-03-02T07:52:45;4.20;;;0.50;;
12302;SDS011;6214;48.012;7.862;2024-03-02T07:55:13;4.40;;;0.50;;
12302;SDS011;6214;48.012;7.862;2024-03-02T07:57:40;4.20;;;0.60;;
12302;SDS011;6214;48.012;7.862;2024-03-02T08:00:07;4.35;;;0.60;;
12302;SDS011;6214;48.012;7.862;2024-03-02T08:02:37;4.30;;;0.50;;
12302;SDS011;6214;48.012;7.862;2024-03-02T08:05:05;4.30;;;0.50;;
12302;SDS011;6214;48.012;7.862;2024-03-02T08:07:32;4.20;;;0.50;;
12302;SDS011;6214;48.012;7.862;2024-03-02T08:09:59;4.20;;;0.40;;
12302;SDS011;6214;48.012;7.862;2024-03-02T08:12:26;4.20;;;0.40;;
12302;SDS011;6214;48.012;7.862;2024-03-02T08:14:53;4.20;;;0.40;;
12302;SDS011;6214;48.012;7.862;2024-03-02T08:17:20;4.30;;;0.50;;
12302;SDS011;6214;48.012;7.862;2024-03-02T08:19:48;4.20;;;0.50;;
12302;SDS011;6214;48.012;7.862;2024-03-02T08:22:15;4.40;;;0.50;;
12302;SDS011;6214;48.012;7.862;2024-03-02T08:24:42;4.70;;;0.60;;
12302;SDS011;6214;48.012;7.862;2024-03-02T08:27:10;4.20;;;0.50;;
12302;SDS011;6214;48.012;7.862;2024-03-02T08:29:37;4.32;;;0.52;;
12302;SDS011;6214;48.012;7.862;2024-03-02T08:32:05;4.40;;;0.50;;
12302;SDS011;6214;48.012;7.862;2024-03-02T08:34:32;4.30;;;0.50;;
12302;SDS011;6214;48.012;7.862;2024-03-02T08:37:03;4.50;;;0.70;;
12302;SDS011;6214;48.012;7.862;2024-03-02T08:39:30;4.40;;;0.60;;
12302;SDS011;6214;48.012;7.862;2024-03-02T08:41:58;4.40;;;0.60;;
12302;SDS011;6214;48.012;7.862;2024-03-02T08:44:25;4.30;;;0.50;;
12302;SDS011;6214;48.012;7.862;2024-03-02T08:46:53;4.30;;;0.50;;
12302;SDS011;6214;48.012;7.862;2024-03-02T08:49:20;4.30;;;0.50;;
12302;SDS011;6214;48.012;7.862;2024-03-02T08:51:47;4.40;;;0.60;;
12302;SDS011;6214;48.012;7.862;2024-03-02T08:54:21;4.40;;;0.60;;
12302;SDS011;6214;48.012;7.862;2024-03-02T08:56:49;4.47;;;0.50;;
12302;SDS011;6214;48.012;7.862;2024-03-02T08:59:16;4.60;;;0.90;;
12302;SDS011;6214;48.012;7.862;2024-03-02T09:01:44;4.80;;;1.07;;
12302;SDS011;6214;48.012;7.862;2024-03-02T09:04:12;4.70;;;1.00;;
12302;SDS011;6214;48.012;7.862;2024-03-02T09:06:39;4.70;;;1.08;;
12302;SDS011;6214;48.012;7.862;2024-03-02T09:09:07;4.60;;;0.80;;
12302;SDS011;6214;48.012;7.862;2024-03-02T09:11:35;4.60;;;0.70;;
12302;SDS011;6214;48.012;7.862;2024-03-02T09:14:02;4.40;;;0.60;;
12302;SDS011;6214;48.012;7.862;2024-03-02T09:16:29;4.20;;;0.40;;
12302;SDS011;6214;48.012;7.862;2024-03-02T09:18:57;4.40;;;0.60;;
12302;SDS011;6214;48.012;7.862;2024-03-02T09:21:25;4.40;;;0.55;;
12302;SDS011;6214;48.012;7.862;2024-03-02T09:23:53;4.50;;;0.70;;
12302;SDS011;6214;48.012;7.862;2024-03-02T09:26:20;4.50;;;0.80;;
12302;SDS011;6214;48.012;7.862;2024-03-02T09:28:48;4.70;;;0.80;;
12302;SDS011;6214;48.012;7.862;2024-03-02T09:31:16;4.47;;;0.70;;
12302;SDS011;6214;48.012;7.862;2024-03-02T09:33:43;4.30;;;0.50;;
12302;SDS011;6214;48.012;7.862;2024-03-02T09:36:21;4.30;;;0.50;;
12302;SDS011;6214;48.012;7.862;2024-03-02T09:38:49;4.50;;;0.70;;
12302;SDS011;6214;48.012;7.862;2024-03-02T09:41:16;4.40;;;0.70;;
12302;SDS011;6214;48.012;7.862;2024-03-02T09:43:44;4.38;;;0.60;;
12302;SDS011;6214;48.012;7.862;2024-03-02T09:46:11;4.30;;;0.60;;
12302;SDS011;6214;48.012;7.862;2024-03-02T09:48:38;4.40;;;0.60;;
12302;SDS011;6214;48.012;7.862;2024-03-02T09:51:06;4.30;;;0.70;;
12302;SDS011;6214;48.012;7.862;2024-03-02T09:53:34;4.70;;;0.70;;
12302;SDS011;6214;48.012;7.862;2024-03-02T09:56:01;4.50;;;0.90;;
12302;SDS011;6214;48.012;7.862;2024-03-02T09:58:28;4.40;;;0.80;;
12302;SDS011;6214;48.012;7.862;2024-03-02T10:00:55;4.70;;;0.90;;
12302;SDS011;6214;48.012;7.862;2024-03-02T10:03:23;4.30;;;0.60;;
12302;SDS011;6214;48.012;7.862;2024-03-02T10:05:53;4.20;;;0.60;;
12302;SDS011;6214;48.012;7.862;2024-03-02T10:08:22;4.20;;;0.50;;
12302;SDS011;6214;48.012;7.862;2024-03-02T10:10:49;4.10;;;0.40;;
12302;SDS011;6214;48.012;7.862;2024-03-02T10:13:16;4.10;;;0.40;;
12302;SDS011;6214;48.012;7.862;2024-03-02T10:15:44;4.10;;;0.50;;
12302;SDS011;6214;48.012;7.862;2024-03-02T10:18:12;4.20;;;0.70;;
12302;SDS011;6214;48.012;7.862;2024-03-02T10:20:40;4.10;;;0.55;;
12302;SDS011;6214;48.012;7.862;2024-03-02T10:23:11;4.40;;;0.70;;
12302;SDS011;6214;48.012;7.862;2024-03-02T10:25:39;4.30;;;0.60;;
12302;SDS011;6214;48.012;7.862;2024-03-02T10:28:20;4.20;;;0.60;;
12302;SDS011;6214;48.012;7.862;2024-03-02T10:30:47;4.30;;;0.70;;
12302;SDS011;6214;48.012;7.862;2024-03-02T10:33:15;4.30;;;0.70;;
12302;SDS011;6214;48.012;7.862;2024-03-02T10:35:44;4.30;;;0.70;;
12302;SDS011;6214;48.012;7.862;2024-03-02T10:38:11;4.30;;;0.60;;
12302;SDS011;6214;48.012;7.862;2024-03-02T10:40:38;4.30;;;0.70;;
12302;SDS011;6214;48.012;7.862;2024-03-02T10:43:05;4.30;;;0.70;;
12302;SDS011;6214;48.012;7.862;2024-03-02T10:45:34;4.28;;;0.50;;
12302;SDS011;6214;48.012;7.862;2024-03-02T10:48:01;4.20;;;0.60;;
12302;SDS011;6214;48.012;7.862;2024-03-02T10:50:29;4.30;;;0.70;;
12302;SDS011;6214;48.012;7.862;2024-03-02T10:52:57;4.43;;;0.90;;
12302;SDS011;6214;48.012;7.862;2024-03-02T10:55:23;4.30;;;0.70;;
12302;SDS011;6214;48.012;7.862;2024-03-02T10:57:52;4.20;;;0.60;;
12302;SDS011;6214;48.012;7.862;2024-03-02T11:00:20;4.25;;;0.70;;
12302;SDS011;6214;48.012;7.862;2024-03-02T11:02:56;4.40;;;0.80;;
12302;SDS011;6214;48.012;7.862;2024-03-02T11:05:28;4.40;;;0.70;;
12302;SDS011;6214;48.012;7.862;2024-03-02T11:08:01;4.20;;;0.70;;
12302;SDS011;6214;48.012;7.862;2024-03-02T11:10:41;4.10;;;0.50;;
12302;SDS011;6214;48.012;7.862;2024-03-02T11:13:20;4.20;;;0.60;;
12302;SDS011;6214;48.012;7.862;2024-03-02T11:16:05;4.40;;;0.60;;
12302;SDS011;6214;48.012;7.862;2024-03-02T11:18:45;4.20;;;0.60;;
12302;SDS011;6214;48.012;7.862;2024-03-02T11:21:12;4.10;;;0.60;;
12302;SDS011;6214;48.012;7.862;2024-03-02T11:23:39;4.10;;;0.60;;
12302;SDS011;6214;48.012;7.862;2024-03-02T11:26:22;4.20;;;0.60;;
12302;SDS011;6214;48.012;7.862;2024-03-02T11:28:53;4.30;;;0.63;;
12302;SDS011;6214;48.012;7.862;2024-03-02T11:31:22;4.10;;;0.50;;
12302;SDS011;6214;48.012;7.862;2024-03-02T11:34:17;4.13;;;0.60;;
12302;SDS011;6214;48.012;7.862;2024-03-02T11:36:55;4.10;;;0.50;;
12302;SDS011;6214;48.012;7.862;2024-03-02T11:39:22;4.20;;;0.60;;
12302;SDS011;6214;48.012;7.862;2024-03-02T11:41:49;4.50;;;0.70;;
12302;SDS011;6214;48.012;7.862;2024-03-02T11:44:18;4.20;;;0.60;;
12302;SDS011;6214;48.012;7.862;2024-03-02T11:46:52;4.30;;;0.68;;
12302;SDS011;6214;48.012;7.862;2024-03-02T11:49:42;4.50;;;0.50;;
12302;SDS011;6214;48.012;7.862;2024-03-02T11:52:15;4.10;;;0.60;;
12302;SDS011;6214;48.012;7.862;2024-03-02T11:54:46;4.20;;;0.60;;
12302;SDS011;6214;48.012;7.862;2024-03-02T11:57:16;4.10;;;0.50;;
12302;SDS011;6214;48.012;7.862;2024-03-02T11:59:44;4.20;;;0.60;;
12302;SDS011;6214;48.012;7.862;2024-03-02T12:02:21;4.28;;;0.60;;
12302;SDS011;6214;48.012;7.862;2024-03-02T12:04:49;4.20;;;0.55;;
12302;SDS011;6214;48.012;7.862;2024-03-02T12:07:19;4.20;;;0.50;;
12302;SDS011;6214;48.012;7.862;2024-03-02T12:10:00;4.10;;;0.50;;
12302;SDS011;6214;48.012;7.862;2024-03-02T12:12:28;4.00;;;0.50;;
12302;SDS011;6214;48.012;7.862;2024-03-02T12:14:55;4.10;;;0.50;;
12302;SDS011;6214;48.012;7.862;2024-03-02T12:17:22;4.28;;;0.73;;
12302;SDS011;6214;48.012;7.862;2024-03-02T12:19:49;4.20;;;0.60;;
12302;SDS011;6214;48.012;7.862;2024-03-02T12:22:16;4.40;;;0.90;;
12302;SDS011;6214;48.012;7.862;2024-03-02T12:24:44;4.60;;;0.90;;
12302;SDS011;6214;48.012;7.862;2024-03-02T12:27:14;4.43;;;0.80;;
12302;SDS011;6214;48.012;7.862;2024-03-02T12:29:42;4.50;;;0.50;;
12302;SDS011;6214;48.012;7.862;2024-03-02T12:32:09;4.20;;;0.60;;
12302;SDS011;6214;48.012;7.862;2024-03-02T12:34:37;4.20;;;0.60;;
12302;SDS011;6214;48.012;7.862;2024-03-02T12:37:05;4.10;;;0.60;;
12302;SDS011;6214;48.012;7.862;2024-03-02T12:39:32;4.00;;;0.40;;
12302;SDS011;6214;48.012;7.862;2024-03-02T12:41:59;4.10;;;0.50;;
12302;SDS011;6214;48.012;7.862;2024-03-02T12:44:29;4.10;;;0.50;;
12302;SDS011;6214;48.012;7.862;2024-03-02T12:46:56;4.20;;;0.60;;
12302;SDS011;6214;48.012;7.862;2024-03-02T12:49:26;4.70;;;0.70;;
12302;SDS011;6214;48.012;7.862;2024-03-02T12:51:55;4.20;;;0.60;;
12302;SDS011;6214;48.012;7.862;2024-03-02T12:54:24;4.10;;;0.60;;
12302;SDS011;6214;48.012;7.862;2024-03-02T12:56:53;4.00;;;0.40;;
12302;SDS011;6214;48.012;7.862;2024-03-02T12:59:21;4.20;;;0.60;;
12302;SDS011;6214;48.012;7.862;2024-03-02T13:01:53;4.10;;;0.50;;
12302;SDS011;6214;48.012;7.862;2024-03-02T13:04:22;4.20;;;0.50;;
12302;SDS011;6214;48.012;7.862;2024-03-02T13:06:57;4.10;;;0.50;;
12302;SDS011;6214;48.012;7.862;2024-03-02T13:09:25;4.10;;;0.50;;
12302;SDS011;6214;48.012;7.862;2024-03-02T13:11:53;4.18;;;0.60;;
12302;SDS011;6214;48.012;7.862;2024-03-02T13:14:21;4.50;;;0.70;;
12302;SDS011;6214;48.012;7.862;2024-03-02T13:16:51;4.10;;;0.60;;
12302;SDS011;6214;48.012;7.862;2024-03-02T13:19:19;4.10;;;0.50;;
12302;SDS011;6214;48.012;7.862;2024-03-02T13:21:46;4.20;;;0.60;;
12302;SDS011;6214;48.012;7.862;2024-03-02T13:24:13;4.50;;;0.60;;
12302;SDS011;6214;48.012;7.862;2024-03-02T13:26:40;4.10;;;0.57;;
12302;SDS011;6214;48.012;7.862;2024-03-02T13:29:07;4.10;;;0.50;;
12302;SDS011;6214;48.012;7.862;2024-03-02T13:31:35;4.10;;;0.45;;
12302;SDS011;6214;48.012;7.862;2024-03-02T13:34:02;4.20;;;0.60;;
12302;SDS011;6214;48.012;7.862;2024-03-02T13:36:29;4.30;;;0.60;;
12302;SDS011;6214;48.012;7.862;2024-03-02T13:38:56;4.10;;;0.47;;
12302;SDS011;6214;48.012;7.862;2024-03-02T13:41:24;4.00;;;0.40;;
12302;SDS011;6214;48.012;7.862;2024-03-02T13:43:51;4.00;;;0.40;;
12302;SDS011;6214;48.012;7.862;2024-03-02T13:46:20;4.10;;;0.60;;
12302;SDS011;6214;48.012;7.862;2024-03-02T13:48:47;4.10;;;0.40;;
12302;SDS011;6214;48.012;7.862;2024-03-02T13:51:14;4.00;;;0.40;;
12302;SDS011;6214;48.012;7.862;2024-03-02T13:53:41;4.20;;;0.50;;
12302;SDS011;6214;48.012;7.862;2024-03-02T13:56:08;4.00;;;0.50;;
12302;SDS011;6214;48.012;7.862;2024-03-02T13:58:35;4.20;;;0.70;;
12302;SDS011;6214;48.012;7.862;2024-03-02T14:01:03;4.20;;;0.60;;
12302;SDS011;6214;48.012;7.862;2024-03-02T14:03:31;4.10;;;0.50;;
12302;SDS011;6214;48.012;7.862;2024-03-02T14:05:58;4.10;;;0.50;;
12302;SDS011;6214;48.012;7.862;2024-03-02T14:08:25;4.20;;;0.50;;
12302;SDS011;6214;48.012;7.862;2024-03-02T14:10:53;4.13;;;0.60;;
12302;SDS011;6214;48.012;7.862;2024-03-02T14:13:21;4.20;;;0.60;;
12302;SDS011;6214;48.012;7.862;2024-03-02T14:15:49;4.30;;;0.60;;
12302;SDS011;6214;48.012;7.862;2024-03-02T14:18:16;4.20;;;0.60;;
12302;SDS011;6214;48.012;7.862;2024-03-02T14:20:43;4.20;;;0.50;;
12302;SDS011;6214;48.012;7.862;2024-03-02T14:23:12;4.32;;;0.60;;
12302;SDS011;6214;48.012;7.862;2024-03-02T14:25:39;4.20;;;0.63;;
12302;SDS011;6214;48.012;7.862;2024-03-02T14:28:07;4.20;;;0.70;;
12302;SDS011;6214;48.012;7.862;2024-03-02T14:30:53;4.40;;;0.80;;
12302;SDS011;6214;48.012;7.862;2024-03-02T14:33:21;4.13;;;0.70;;
12302;SDS011;6214;48.012;7.862;2024-03-02T14:35:48;4.40;;;0.90;;
12302;SDS011;6214;48.012;7.862;2024-03-02T14:38:15;4.10;;;0.60;;
12302;SDS011;6214;48.012;7.862;2024-03-02T14:40:42;4.10;;;0.50;;
12302;SDS011;6214;48.012;7.862;2024-03-02T14:43:09;4.10;;;0.50;;
12302;SDS011;6214;48.012;7.862;2024-03-02T14:45:36;4.10;;;0.40;;
12302;SDS011;6214;48.012;7.862;2024-03-02T14:48:03;4.10;;;0.50;;
12302;SDS011;6214;48.012;7.862;2024-03-02T14:50:31;4.20;;;0.70;;
12302;SDS011;6214;48.012;7.862;2024-03-02T14:52:59;4.10;;;0.60;;
12302;SDS011;6214;48.012;7.862;2024-03-02T14:55:27;4.10;;;0.50;;
12302;SDS011;6214;48.012;7.862;2024-03-02T14:57:54;4.10;;;0.50;;
12302;SDS011;6214;48.012;7.862;2024-03-02T15:00:21;7.00;;;4.55;;
12302;SDS011;6214;48.012;7.862;2024-03-02T15:02:48;6.90;;;4.38;;
12302;SDS011;6214;48.012;7.862;2024-03-02T15:05:16;5.60;;;2.50;;
12302;SDS011;6214;48.012;7.862;2024-03-02T15:07:44;4.70;;;1.30;;
12302;SDS011;6214;48.012;7.862;2024-03-02T15:10:11;4.30;;;0.80;;